Observations

82.2 °F / 27.9 °C
ENE at 15 MPH
71%
72.1°F / 22.3 °C
29.87" (1011 mb)
10 mile(s)
mostly cloudy
2017.04.25 2000 UTC

Observations

Surface


Raw METARs

2017/04/25 20:00
PKWA 252000Z AUTO 07013KT 10SM SCT021 SCT027 BKN041 28/22 A2987 RMK AO2 T02790223

Translated METAR

Kwajalein, Bucholz AAF, Kwajalein KMR ATOL Airport, Marshall Islands (PKWA) 08-43N 167-44E 2M
Apr 25, 2017 - 04:00 PM EDT / 2017.04.25 2000 UTC
Wind: from the ENE (070 degrees) at 15 MPH (13 KT):0
Visibility: 10 mile(s):0
Sky conditions: mostly cloudy
Temperature: 82.2 F (27.9 C)
Dew Point: 72.1 F (22.3 C)
Relative Humidity: 71%
Pressure (altimeter): 29.87 in. Hg (1011 hPa)
ob: PKWA 252000Z AUTO 07013KT 10SM SCT021 SCT027 BKN041 28/22 A2987 RMK AO2 T02790223
cycle: 20



Upper Air


Latest Skew-T

Skew T Diagram

Latest Data File